sensor_id;sensor_type;location;lat;lon;timestamp;P1;durP1;ratioP1;P2;durP2;ratioP2
6426;SDS011;3246;42.664;23.308;2023-03-01T00:01:44;3.93;;;3.37;;
6426;SDS011;3246;42.664;23.308;2023-03-01T00:04:11;2.97;;;2.50;;
6426;SDS011;3246;42.664;23.308;2023-03-01T00:06:37;3.77;;;3.43;;
6426;SDS011;3246;42.664;23.308;2023-03-01T00:09:04;4.57;;;4.00;;
6426;SDS011;3246;42.664;23.308;2023-03-01T00:11:31;3.93;;;3.63;;
6426;SDS011;3246;42.664;23.308;2023-03-01T00:13:59;4.87;;;4.47;;
6426;SDS011;3246;42.664;23.308;2023-03-01T00:16:26;7.53;;;5.10;;
6426;SDS011;3246;42.664;23.308;2023-03-01T00:18:55;8.63;;;5.70;;
6426;SDS011;3246;42.664;23.308;2023-03-01T00:21:22;7.17;;;6.03;;
6426;SDS011;3246;42.664;23.308;2023-03-01T00:23:49;3.70;;;3.33;;
6426;SDS011;3246;42.664;23.308;2023-03-01T00:26:16;4.43;;;4.03;;
6426;SDS011;3246;42.664;23.308;2023-03-01T00:28:43;5.33;;;3.80;;
6426;SDS011;3246;42.664;23.308;2023-03-01T00:31:11;3.47;;;3.27;;
6426;SDS011;3246;42.664;23.308;2023-03-01T00:33:38;3.80;;;3.50;;
6426;SDS011;3246;42.664;23.308;2023-03-01T00:36:06;3.87;;;3.57;;
6426;SDS011;3246;42.664;23.308;2023-03-01T00:38:34;3.90;;;3.60;;
6426;SDS011;3246;42.664;23.308;2023-03-01T00:41:02;4.00;;;3.70;;
6426;SDS011;3246;42.664;23.308;2023-03-01T00:43:29;4.63;;;3.70;;
6426;SDS011;3246;42.664;23.308;2023-03-01T00:45:55;3.80;;;3.50;;
6426;SDS011;3246;42.664;23.308;2023-03-01T00:48:22;3.83;;;3.53;;
6426;SDS011;3246;42.664;23.308;2023-03-01T00:50:48;4.40;;;4.00;;
6426;SDS011;3246;42.664;23.308;2023-03-01T00:53:16;3.93;;;3.53;;
6426;SDS011;3246;42.664;23.308;2023-03-01T00:55:43;5.80;;;4.07;;
6426;SDS011;3246;42.664;23.308;2023-03-01T00:58:09;3.30;;;2.97;;
6426;SDS011;3246;42.664;23.308;2023-03-01T01:00:36;3.47;;;2.97;;
6426;SDS011;3246;42.664;23.308;2023-03-01T01:03:02;3.27;;;2.97;;
6426;SDS011;3246;42.664;23.308;2023-03-01T01:05:29;3.23;;;2.93;;
6426;SDS011;3246;42.664;23.308;2023-03-01T01:07:55;2.67;;;2.47;;
6426;SDS011;3246;42.664;23.308;2023-03-01T01:10:23;4.77;;;3.90;;
6426;SDS011;3246;42.664;23.308;2023-03-01T01:12:50;3.33;;;3.03;;
6426;SDS011;3246;42.664;23.308;2023-03-01T01:15:16;3.43;;;3.10;;
6426;SDS011;3246;42.664;23.308;2023-03-01T01:17:43;5.10;;;2.73;;
6426;SDS011;3246;42.664;23.308;2023-03-01T01:20:10;2.77;;;2.57;;
6426;SDS011;3246;42.664;23.308;2023-03-01T01:22:36;2.77;;;2.47;;
6426;SDS011;3246;42.664;23.308;2023-03-01T01:25:03;2.23;;;2.03;;
6426;SDS011;3246;42.664;23.308;2023-03-01T01:27:31;2.90;;;2.70;;
6426;SDS011;3246;42.664;23.308;2023-03-01T01:29:58;2.53;;;2.33;;
6426;SDS011;3246;42.664;23.308;2023-03-01T01:32:24;2.37;;;2.17;;
6426;SDS011;3246;42.664;23.308;2023-03-01T01:34:50;2.00;;;1.90;;
6426;SDS011;3246;42.664;23.308;2023-03-01T01:37:17;2.00;;;1.80;;
6426;SDS011;3246;42.664;23.308;2023-03-01T01:39:43;2.57;;;2.37;;
6426;SDS011;3246;42.664;23.308;2023-03-01T01:42:11;2.77;;;2.30;;
6426;SDS011;3246;42.664;23.308;2023-03-01T01:44:42;1.87;;;1.77;;
6426;SDS011;3246;42.664;23.308;2023-03-01T01:47:11;2.17;;;1.97;;
6426;SDS011;3246;42.664;23.308;2023-03-01T01:49:39;1.73;;;1.63;;
6426;SDS011;3246;42.664;23.308;2023-03-01T01:52:09;2.07;;;1.83;;
6426;SDS011;3246;42.664;23.308;2023-03-01T01:54:39;1.23;;;1.23;;
6426;SDS011;3246;42.664;23.308;2023-03-01T01:57:07;2.07;;;1.97;;
6426;SDS011;3246;42.664;23.308;2023-03-01T01:59:35;1.27;;;1.17;;
6426;SDS011;3246;42.664;23.308;2023-03-01T02:02:04;1.60;;;1.50;;
6426;SDS011;3246;42.664;23.308;2023-03-01T02:04:31;2.03;;;1.53;;
6426;SDS011;3246;42.664;23.308;2023-03-01T02:06:59;1.30;;;1.30;;
6426;SDS011;3246;42.664;23.308;2023-03-01T02:09:27;1.50;;;1.40;;
6426;SDS011;3246;42.664;23.308;2023-03-01T02:11:54;1.20;;;1.10;;
6426;SDS011;3246;42.664;23.308;2023-03-01T02:14:20;1.30;;;1.20;;
6426;SDS011;3246;42.664;23.308;2023-03-01T02:16:47;1.00;;;1.00;;
6426;SDS011;3246;42.664;23.308;2023-03-01T02:19:17;1.10;;;1.10;;
6426;SDS011;3246;42.664;23.308;2023-03-01T02:21:45;1.03;;;1.03;;
6426;SDS011;3246;42.664;23.308;2023-03-01T02:24:18;1.40;;;1.30;;
6426;SDS011;3246;42.664;23.308;2023-03-01T02:26:48;1.70;;;1.60;;
6426;SDS011;3246;42.664;23.308;2023-03-01T02:29:17;1.57;;;1.57;;
6426;SDS011;3246;42.664;23.308;2023-03-01T02:31:44;1.60;;;1.50;;
6426;SDS011;3246;42.664;23.308;2023-03-01T02:34:11;1.73;;;1.63;;
6426;SDS011;3246;42.664;23.308;2023-03-01T02:36:39;1.70;;;1.60;;
6426;SDS011;3246;42.664;23.308;2023-03-01T02:39:07;1.77;;;1.67;;
6426;SDS011;3246;42.664;23.308;2023-03-01T02:41:39;1.83;;;1.73;;
6426;SDS011;3246;42.664;23.308;2023-03-01T02:44:07;1.80;;;1.70;;
6426;SDS011;3246;42.664;23.308;2023-03-01T02:46:41;3.90;;;2.27;;
6426;SDS011;3246;42.664;23.308;2023-03-01T02:49:16;1.70;;;1.60;;
6426;SDS011;3246;42.664;23.308;2023-03-01T02:51:45;2.30;;;2.10;;
6426;SDS011;3246;42.664;23.308;2023-03-01T02:54:16;2.50;;;2.30;;
6426;SDS011;3246;42.664;23.308;2023-03-01T02:56:44;2.17;;;2.07;;
6426;SDS011;3246;42.664;23.308;2023-03-01T02:59:13;3.73;;;2.30;;
6426;SDS011;3246;42.664;23.308;2023-03-01T03:01:41;1.80;;;1.70;;
6426;SDS011;3246;42.664;23.308;2023-03-01T03:04:08;2.13;;;2.03;;
6426;SDS011;3246;42.664;23.308;2023-03-01T03:06:36;3.70;;;2.50;;
6426;SDS011;3246;42.664;23.308;2023-03-01T03:09:02;1.90;;;1.80;;
6426;SDS011;3246;42.664;23.308;2023-03-01T03:11:29;1.80;;;1.70;;
6426;SDS011;3246;42.664;23.308;2023-03-01T03:13:57;2.10;;;2.00;;
6426;SDS011;3246;42.664;23.308;2023-03-01T03:16:23;2.43;;;2.23;;
6426;SDS011;3246;42.664;23.308;2023-03-01T03:18:52;1.23;;;1.23;;
6426;SDS011;3246;42.664;23.308;2023-03-01T03:21:18;3.00;;;2.60;;
6426;SDS011;3246;42.664;23.308;2023-03-01T03:23:45;2.77;;;2.57;;
6426;SDS011;3246;42.664;23.308;2023-03-01T03:26:11;2.80;;;2.50;;
6426;SDS011;3246;42.664;23.308;2023-03-01T03:28:40;3.00;;;2.70;;
6426;SDS011;3246;42.664;23.308;2023-03-01T03:31:07;3.33;;;3.13;;
6426;SDS011;3246;42.664;23.308;2023-03-01T03:33:33;3.73;;;2.77;;
6426;SDS011;3246;42.664;23.308;2023-03-01T03:36:01;2.97;;;2.77;;
6426;SDS011;3246;42.664;23.308;2023-03-01T03:38:28;3.47;;;3.17;;
6426;SDS011;3246;42.664;23.308;2023-03-01T03:40:59;2.93;;;2.73;;
6426;SDS011;3246;42.664;23.308;2023-03-01T03:43:27;3.00;;;2.80;;
6426;SDS011;3246;42.664;23.308;2023-03-01T03:45:53;2.90;;;2.40;;
6426;SDS011;3246;42.664;23.308;2023-03-01T03:48:22;3.27;;;2.97;;
6426;SDS011;3246;42.664;23.308;2023-03-01T03:50:49;3.40;;;3.10;;
6426;SDS011;3246;42.664;23.308;2023-03-01T03:53:18;2.83;;;2.30;;
6426;SDS011;3246;42.664;23.308;2023-03-01T03:55:44;2.83;;;2.30;;
6426;SDS011;3246;42.664;23.308;2023-03-01T03:58:14;3.53;;;3.20;;
6426;SDS011;3246;42.664;23.308;2023-03-01T04:00:42;2.77;;;2.57;;
6426;SDS011;3246;42.664;23.308;2023-03-01T04:03:08;2.83;;;2.63;;
6426;SDS011;3246;42.664;23.308;2023-03-01T04:05:36;2.70;;;2.50;;
6426;SDS011;3246;42.664;23.308;2023-03-01T04:08:03;2.90;;;2.63;;
6426;SDS011;3246;42.664;23.308;2023-03-01T04:10:34;3.03;;;2.83;;
6426;SDS011;3246;42.664;23.308;2023-03-01T04:13:01;2.70;;;2.50;;
6426;SDS011;3246;42.664;23.308;2023-03-01T04:15:27;2.53;;;2.33;;
6426;SDS011;3246;42.664;23.308;2023-03-01T04:17:54;2.87;;;2.67;;
6426;SDS011;3246;42.664;23.308;2023-03-01T04:20:21;4.60;;;2.53;;
6426;SDS011;3246;42.664;23.308;2023-03-01T04:22:50;3.37;;;2.33;;
6426;SDS011;3246;42.664;23.308;2023-03-01T04:25:17;1.70;;;1.60;;
6426;SDS011;3246;42.664;23.308;2023-03-01T04:27:45;3.00;;;2.80;;
6426;SDS011;3246;42.664;23.308;2023-03-01T04:30:11;4.53;;;2.57;;
6426;SDS011;3246;42.664;23.308;2023-03-01T04:32:38;2.60;;;2.40;;
6426;SDS011;3246;42.664;23.308;2023-03-01T04:35:04;2.43;;;2.30;;
6426;SDS011;3246;42.664;23.308;2023-03-01T04:37:31;2.50;;;2.33;;
6426;SDS011;3246;42.664;23.308;2023-03-01T04:39:58;2.70;;;2.50;;
6426;SDS011;3246;42.664;23.308;2023-03-01T04:42:24;2.73;;;2.53;;
6426;SDS011;3246;42.664;23.308;2023-03-01T04:44:53;3.27;;;2.97;;
6426;SDS011;3246;42.664;23.308;2023-03-01T04:47:19;4.23;;;2.30;;
6426;SDS011;3246;42.664;23.308;2023-03-01T04:49:46;2.47;;;2.20;;
6426;SDS011;3246;42.664;23.308;2023-03-01T04:52:12;2.30;;;2.20;;
6426;SDS011;3246;42.664;23.308;2023-03-01T04:54:39;2.27;;;2.17;;
6426;SDS011;3246;42.664;23.308;2023-03-01T04:57:05;2.47;;;2.27;;
6426;SDS011;3246;42.664;23.308;2023-03-01T04:59:32;2.60;;;2.40;;
6426;SDS011;3246;42.664;23.308;2023-03-01T05:02:00;2.77;;;2.40;;
6426;SDS011;3246;42.664;23.308;2023-03-01T05:04:26;2.53;;;2.33;;
6426;SDS011;3246;42.664;23.308;2023-03-01T05:06:53;2.70;;;2.50;;
6426;SDS011;3246;42.664;23.308;2023-03-01T05:09:20;2.17;;;1.97;;
6426;SDS011;3246;42.664;23.308;2023-03-01T05:11:47;3.17;;;2.30;;
6426;SDS011;3246;42.664;23.308;2023-03-01T05:14:13;3.53;;;3.23;;
6426;SDS011;3246;42.664;23.308;2023-03-01T05:16:40;3.13;;;2.83;;
6426;SDS011;3246;42.664;23.308;2023-03-01T05:19:08;2.90;;;2.70;;
6426;SDS011;3246;42.664;23.308;2023-03-01T05:21:40;2.83;;;2.57;;
6426;SDS011;3246;42.664;23.308;2023-03-01T05:24:26;7.53;;;6.93;;
6426;SDS011;3246;42.664;23.308;2023-03-01T05:26:53;15.70;;;13.80;;
6426;SDS011;3246;42.664;23.308;2023-03-01T05:29:20;4.97;;;2.80;;
6426;SDS011;3246;42.664;23.308;2023-03-01T05:31:50;4.80;;;3.13;;
6426;SDS011;3246;42.664;23.308;2023-03-01T05:34:18;2.93;;;2.43;;
6426;SDS011;3246;42.664;23.308;2023-03-01T05:36:47;2.60;;;2.40;;
6426;SDS011;3246;42.664;23.308;2023-03-01T05:39:16;2.37;;;2.17;;
6426;SDS011;3246;42.664;23.308;2023-03-01T05:41:42;3.70;;;3.20;;
6426;SDS011;3246;42.664;23.308;2023-03-01T05:44:09;2.90;;;2.70;;
6426;SDS011;3246;42.664;23.308;2023-03-01T05:46:37;2.90;;;2.70;;
6426;SDS011;3246;42.664;23.308;2023-03-01T05:49:03;2.70;;;2.50;;
6426;SDS011;3246;42.664;23.308;2023-03-01T05:51:31;3.27;;;2.70;;
6426;SDS011;3246;42.664;23.308;2023-03-01T05:53:58;3.47;;;3.17;;
6426;SDS011;3246;42.664;23.308;2023-03-01T05:56:25;4.70;;;3.73;;
6426;SDS011;3246;42.664;23.308;2023-03-01T05:58:51;4.20;;;3.70;;
6426;SDS011;3246;42.664;23.308;2023-03-01T06:01:18;4.20;;;3.83;;
6426;SDS011;3246;42.664;23.308;2023-03-01T06:03:44;4.10;;;3.80;;
6426;SDS011;3246;42.664;23.308;2023-03-01T06:06:11;4.43;;;4.00;;
6426;SDS011;3246;42.664;23.308;2023-03-01T06:08:39;5.00;;;3.87;;
6426;SDS011;3246;42.664;23.308;2023-03-01T06:11:05;4.87;;;4.17;;
6426;SDS011;3246;42.664;23.308;2023-03-01T06:13:32;4.83;;;4.40;;
6426;SDS011;3246;42.664;23.308;2023-03-01T06:15:59;4.00;;;3.37;;
6426;SDS011;3246;42.664;23.308;2023-03-01T06:18:25;3.93;;;3.63;;
6426;SDS011;3246;42.664;23.308;2023-03-01T06:20:52;5.67;;;3.83;;
6426;SDS011;3246;42.664;23.308;2023-03-01T06:23:19;5.47;;;3.47;;
6426;SDS011;3246;42.664;23.308;2023-03-01T06:25:47;3.90;;;3.50;;
6426;SDS011;3246;42.664;23.308;2023-03-01T06:28:13;5.20;;;3.97;;
6426;SDS011;3246;42.664;23.308;2023-03-01T06:30:40;5.30;;;3.77;;
6426;SDS011;3246;42.664;23.308;2023-03-01T06:33:06;4.83;;;4.43;;
6426;SDS011;3246;42.664;23.308;2023-03-01T06:35:33;3.53;;;3.23;;
6426;SDS011;3246;42.664;23.308;2023-03-01T06:38:00;5.70;;;3.40;;
6426;SDS011;3246;42.664;23.308;2023-03-01T06:40:27;4.47;;;3.53;;
6426;SDS011;3246;42.664;23.308;2023-03-01T06:42:55;4.00;;;3.33;;
6426;SDS011;3246;42.664;23.308;2023-03-01T06:45:21;6.00;;;3.87;;
6426;SDS011;3246;42.664;23.308;2023-03-01T06:47:48;6.03;;;4.03;;
6426;SDS011;3246;42.664;23.308;2023-03-01T06:50:14;3.77;;;3.27;;
6426;SDS011;3246;42.664;23.308;2023-03-01T06:52:41;3.40;;;3.10;;
6426;SDS011;3246;42.664;23.308;2023-03-01T06:55:09;4.37;;;3.40;;
6426;SDS011;3246;42.664;23.308;2023-03-01T06:57:36;3.07;;;2.87;;
6426;SDS011;3246;42.664;23.308;2023-03-01T07:00:05;3.83;;;3.17;;
6426;SDS011;3246;42.664;23.308;2023-03-01T07:02:32;6.07;;;3.27;;
6426;SDS011;3246;42.664;23.308;2023-03-01T07:04:58;3.33;;;3.03;;
6426;SDS011;3246;42.664;23.308;2023-03-01T07:07:25;5.17;;;3.23;;
6426;SDS011;3246;42.664;23.308;2023-03-01T07:09:51;3.83;;;3.00;;
6426;SDS011;3246;42.664;23.308;2023-03-01T07:12:18;3.43;;;3.13;;
6426;SDS011;3246;42.664;23.308;2023-03-01T07:14:44;5.70;;;3.30;;
6426;SDS011;3246;42.664;23.308;2023-03-01T07:17:12;3.17;;;2.93;;
6426;SDS011;3246;42.664;23.308;2023-03-01T07:19:39;3.90;;;2.83;;
6426;SDS011;3246;42.664;23.308;2023-03-01T07:22:05;2.60;;;2.40;;
6426;SDS011;3246;42.664;23.308;2023-03-01T07:24:33;3.70;;;2.27;;
6426;SDS011;3246;42.664;23.308;2023-03-01T07:26:59;2.70;;;2.50;;
6426;SDS011;3246;42.664;23.308;2023-03-01T07:29:26;3.70;;;3.10;;
6426;SDS011;3246;42.664;23.308;2023-03-01T07:31:53;2.33;;;2.13;;
6426;SDS011;3246;42.664;23.308;2023-03-01T07:34:21;9.87;;;2.63;;
6426;SDS011;3246;42.664;23.308;2023-03-01T07:36:48;4.13;;;3.10;;
6426;SDS011;3246;42.664;23.308;2023-03-01T07:39:14;4.87;;;3.67;;
6426;SDS011;3246;42.664;23.308;2023-03-01T07:41:41;4.97;;;3.50;;
6426;SDS011;3246;42.664;23.308;2023-03-01T07:44:07;3.10;;;2.80;;
6426;SDS011;3246;42.664;23.308;2023-03-01T07:46:34;5.83;;;3.10;;
6426;SDS011;3246;42.664;23.308;2023-03-01T07:49:00;3.00;;;2.43;;
6426;SDS011;3246;42.664;23.308;2023-03-01T07:51:28;4.23;;;2.00;;
6426;SDS011;3246;42.664;23.308;2023-03-01T07:53:55;3.10;;;2.50;;
6426;SDS011;3246;42.664;23.308;2023-03-01T07:56:21;2.77;;;2.67;;
6426;SDS011;3246;42.664;23.308;2023-03-01T07:58:48;3.17;;;2.90;;
6426;SDS011;3246;42.664;23.308;2023-03-01T08:01:15;5.77;;;2.53;;
6426;SDS011;3246;42.664;23.308;2023-03-01T08:03:41;3.23;;;2.33;;
6426;SDS011;3246;42.664;23.308;2023-03-01T08:06:11;3.33;;;3.03;;
6426;SDS011;3246;42.664;23.308;2023-03-01T08:08:39;3.60;;;3.30;;
6426;SDS011;3246;42.664;23.308;2023-03-01T08:11:06;8.23;;;3.90;;
6426;SDS011;3246;42.664;23.308;2023-03-01T08:13:33;4.80;;;2.30;;
6426;SDS011;3246;42.664;23.308;2023-03-01T08:16:03;2.70;;;2.47;;
6426;SDS011;3246;42.664;23.308;2023-03-01T08:18:30;6.03;;;2.60;;
6426;SDS011;3246;42.664;23.308;2023-03-01T08:21:00;3.47;;;3.23;;
6426;SDS011;3246;42.664;23.308;2023-03-01T08:23:27;4.53;;;2.77;;
6426;SDS011;3246;42.664;23.308;2023-03-01T08:25:56;2.40;;;2.10;;
6426;SDS011;3246;42.664;23.308;2023-03-01T08:28:29;2.50;;;2.30;;
6426;SDS011;3246;42.664;23.308;2023-03-01T08:30:55;2.47;;;2.27;;
6426;SDS011;3246;42.664;23.308;2023-03-01T08:33:22;3.97;;;3.10;;
6426;SDS011;3246;42.664;23.308;2023-03-01T08:35:48;3.30;;;3.00;;
6426;SDS011;3246;42.664;23.308;2023-03-01T08:38:15;3.33;;;3.00;;
6426;SDS011;3246;42.664;23.308;2023-03-01T08:40:41;2.77;;;2.57;;
6426;SDS011;3246;42.664;23.308;2023-03-01T08:43:09;5.80;;;4.30;;
6426;SDS011;3246;42.664;23.308;2023-03-01T08:45:36;4.27;;;3.97;;
6426;SDS011;3246;42.664;23.308;2023-03-01T08:48:03;3.60;;;3.30;;
6426;SDS011;3246;42.664;23.308;2023-03-01T08:50:29;4.97;;;4.57;;
6426;SDS011;3246;42.664;23.308;2023-03-01T08:52:55;3.53;;;3.17;;
6426;SDS011;3246;42.664;23.308;2023-03-01T08:55:22;4.20;;;3.90;;
6426;SDS011;3246;42.664;23.308;2023-03-01T08:57:48;7.63;;;5.97;;
6426;SDS011;3246;42.664;23.308;2023-03-01T09:00:17;12.73;;;9.10;;
6426;SDS011;3246;42.664;23.308;2023-03-01T09:02:43;13.90;;;7.13;;
6426;SDS011;3246;42.664;23.308;2023-03-01T09:05:10;6.37;;;5.43;;
6426;SDS011;3246;42.664;23.308;2023-03-01T09:07:36;3.10;;;2.90;;
6426;SDS011;3246;42.664;23.308;2023-03-01T09:10:03;3.07;;;2.23;;
6426;SDS011;3246;42.664;23.308;2023-03-01T09:12:30;5.20;;;3.00;;
6426;SDS011;3246;42.664;23.308;2023-03-01T09:14:56;3.23;;;3.03;;
6426;SDS011;3246;42.664;23.308;2023-03-01T09:17:24;3.20;;;2.93;;
6426;SDS011;3246;42.664;23.308;2023-03-01T09:19:51;5.50;;;3.40;;
6426;SDS011;3246;42.664;23.308;2023-03-01T09:22:17;5.33;;;3.30;;
6426;SDS011;3246;42.664;23.308;2023-03-01T09:24:44;2.13;;;2.03;;
6426;SDS011;3246;42.664;23.308;2023-03-01T09:27:10;2.90;;;2.50;;
6426;SDS011;3246;42.664;23.308;2023-03-01T09:29:37;2.03;;;1.83;;
6426;SDS011;3246;42.664;23.308;2023-03-01T09:32:04;2.30;;;2.17;;
6426;SDS011;3246;42.664;23.308;2023-03-01T09:34:33;2.63;;;2.10;;
6426;SDS011;3246;42.664;23.308;2023-03-01T09:37:19;1.97;;;1.87;;
6426;SDS011;3246;42.664;23.308;2023-03-01T09:39:46;2.30;;;2.10;;
6426;SDS011;3246;42.664;23.308;2023-03-01T09:42:12;2.20;;;2.03;;
6426;SDS011;3246;42.664;23.308;2023-03-01T09:44:42;5.27;;;2.30;;
6426;SDS011;3246;42.664;23.308;2023-03-01T09:47:12;1.67;;;1.57;;
6426;SDS011;3246;42.664;23.308;2023-03-01T09:49:42;2.60;;;2.40;;
6426;SDS011;3246;42.664;23.308;2023-03-01T09:52:16;1.90;;;1.80;;
6426;SDS011;3246;42.664;23.308;2023-03-01T09:54:46;2.43;;;2.23;;
6426;SDS011;3246;42.664;23.308;2023-03-01T09:57:17;1.87;;;1.77;;
6426;SDS011;3246;42.664;23.308;2023-03-01T10:02:39;5.97;;;2.10;;
6426;SDS011;3246;42.664;23.308;2023-03-01T10:05:19;3.67;;;3.20;;
6426;SDS011;3246;42.664;23.308;2023-03-01T10:07:48;1.90;;;1.80;;
6426;SDS011;3246;42.664;23.308;2023-03-01T10:10:23;1.70;;;1.60;;
6426;SDS011;3246;42.664;23.308;2023-03-01T10:12:52;2.00;;;1.90;;
6426;SDS011;3246;42.664;23.308;2023-03-01T10:15:20;2.00;;;1.80;;
6426;SDS011;3246;42.664;23.308;2023-03-01T10:17:49;5.40;;;2.30;;
6426;SDS011;3246;42.664;23.308;2023-03-01T10:20:19;2.77;;;1.47;;
6426;SDS011;3246;42.664;23.308;2023-03-01T10:22:46;1.87;;;1.73;;
6426;SDS011;3246;42.664;23.308;2023-03-01T10:25:17;1.70;;;1.60;;
6426;SDS011;3246;42.664;23.308;2023-03-01T10:27:46;7.57;;;2.10;;
6426;SDS011;3246;42.664;23.308;2023-03-01T10:30:16;1.80;;;1.70;;
6426;SDS011;3246;42.664;23.308;2023-03-01T10:32:45;2.10;;;2.00;;
6426;SDS011;3246;42.664;23.308;2023-03-01T10:35:19;2.20;;;2.00;;
6426;SDS011;3246;42.664;23.308;2023-03-01T10:37:56;2.00;;;1.90;;
6426;SDS011;3246;42.664;23.308;2023-03-01T10:40:23;2.50;;;2.30;;
6426;SDS011;3246;42.664;23.308;2023-03-01T10:42:49;3.90;;;2.50;;
6426;SDS011;3246;42.664;23.308;2023-03-01T10:45:17;3.40;;;2.10;;
6426;SDS011;3246;42.664;23.308;2023-03-01T10:48:01;2.40;;;2.20;;
6426;SDS011;3246;42.664;23.308;2023-03-01T10:50:30;3.30;;;2.90;;
6426;SDS011;3246;42.664;23.308;2023-03-01T10:52:57;3.87;;;2.23;;
6426;SDS011;3246;42.664;23.308;2023-03-01T10:55:26;2.67;;;1.97;;
6426;SDS011;3246;42.664;23.308;2023-03-01T10:58:06;2.77;;;2.23;;
6426;SDS011;3246;42.664;23.308;2023-03-01T11:00:33;2.70;;;2.50;;
6426;SDS011;3246;42.664;23.308;2023-03-01T11:03:08;1.13;;;1.13;;
6426;SDS011;3246;42.664;23.308;2023-03-01T11:05:39;6.40;;;1.60;;
6426;SDS011;3246;42.664;23.308;2023-03-01T11:08:26;1.97;;;1.63;;
6426;SDS011;3246;42.664;23.308;2023-03-01T11:11:02;1.77;;;1.67;;
6426;SDS011;3246;42.664;23.308;2023-03-01T11:13:29;4.87;;;2.67;;
6426;SDS011;3246;42.664;23.308;2023-03-01T11:15:59;2.90;;;2.13;;
6426;SDS011;3246;42.664;23.308;2023-03-01T11:18:26;3.30;;;2.33;;
6426;SDS011;3246;42.664;23.308;2023-03-01T11:20:56;8.47;;;2.20;;
6426;SDS011;3246;42.664;23.308;2023-03-01T11:23:24;2.17;;;1.80;;
6426;SDS011;3246;42.664;23.308;2023-03-01T11:25:53;7.30;;;2.70;;
6426;SDS011;3246;42.664;23.308;2023-03-01T11:28:21;4.17;;;1.73;;
6426;SDS011;3246;42.664;23.308;2023-03-01T11:30:49;1.50;;;1.40;;
6426;SDS011;3246;42.664;23.308;2023-03-01T11:33:20;2.07;;;1.87;;
6426;SDS011;3246;42.664;23.308;2023-03-01T11:35:53;2.00;;;1.90;;
6426;SDS011;3246;42.664;23.308;2023-03-01T11:38:23;1.63;;;1.53;;
6426;SDS011;3246;42.664;23.308;2023-03-01T11:40:52;2.40;;;1.20;;
6426;SDS011;3246;42.664;23.308;2023-03-01T11:43:26;1.60;;;1.50;;
6426;SDS011;3246;42.664;23.308;2023-03-01T11:45:57;1.50;;;1.40;;
6426;SDS011;3246;42.664;23.308;2023-03-01T11:48:33;3.40;;;2.13;;
6426;SDS011;3246;42.664;23.308;2023-03-01T11:51:05;2.67;;;2.47;;
6426;SDS011;3246;42.664;23.308;2023-03-01T11:53:39;2.30;;;2.10;;
6426;SDS011;3246;42.664;23.308;2023-03-01T11:56:15;2.83;;;2.63;;
6426;SDS011;3246;42.664;23.308;2023-03-01T12:01:26;3.23;;;3.03;;
6426;SDS011;3246;42.664;23.308;2023-03-01T12:04:03;2.90;;;2.67;;
6426;SDS011;3246;42.664;23.308;2023-03-01T12:06:38;1.97;;;1.87;;
6426;SDS011;3246;42.664;23.308;2023-03-01T12:09:13;3.20;;;3.00;;
6426;SDS011;3246;42.664;23.308;2023-03-01T12:11:53;4.17;;;3.60;;
6426;SDS011;3246;42.664;23.308;2023-03-01T12:14:35;3.60;;;2.97;;
6426;SDS011;3246;42.664;23.308;2023-03-01T12:17:13;4.10;;;3.20;;
6426;SDS011;3246;42.664;23.308;2023-03-01T12:19:46;3.00;;;2.63;;
6426;SDS011;3246;42.664;23.308;2023-03-01T12:22:26;3.20;;;2.90;;
6426;SDS011;3246;42.664;23.308;2023-03-01T12:27:47;3.10;;;2.83;;
6426;SDS011;3246;42.664;23.308;2023-03-01T12:30:19;5.63;;;3.77;;
6426;SDS011;3246;42.664;23.308;2023-03-01T12:32:53;8.27;;;4.97;;
6426;SDS011;3246;42.664;23.308;2023-03-01T12:35:27;4.17;;;3.80;;
6426;SDS011;3246;42.664;23.308;2023-03-01T12:37:59;3.57;;;3.27;;
6426;SDS011;3246;42.664;23.308;2023-03-01T12:40:33;3.40;;;2.90;;
6426;SDS011;3246;42.664;23.308;2023-03-01T12:43:08;3.10;;;2.90;;
6426;SDS011;3246;42.664;23.308;2023-03-01T12:45:43;3.60;;;3.27;;
6426;SDS011;3246;42.664;23.308;2023-03-01T12:48:20;3.73;;;3.10;;
6426;SDS011;3246;42.664;23.308;2023-03-01T12:50:51;3.93;;;3.63;;
6426;SDS011;3246;42.664;23.308;2023-03-01T12:53:21;4.33;;;3.93;;
6426;SDS011;3246;42.664;23.308;2023-03-01T12:55:48;6.47;;;3.40;;
6426;SDS011;3246;42.664;23.308;2023-03-01T12:58:17;4.33;;;3.93;;
6426;SDS011;3246;42.664;23.308;2023-03-01T13:00:52;4.53;;;4.13;;
6426;SDS011;3246;42.664;23.308;2023-03-01T13:03:23;6.33;;;3.43;;
6426;SDS011;3246;42.664;23.308;2023-03-01T13:05:56;4.10;;;3.20;;
6426;SDS011;3246;42.664;23.308;2023-03-01T13:08:29;4.53;;;3.03;;
6426;SDS011;3246;42.664;23.308;2023-03-01T13:10:58;5.60;;;4.00;;
6426;SDS011;3246;42.664;23.308;2023-03-01T13:13:28;4.13;;;3.00;;
6426;SDS011;3246;42.664;23.308;2023-03-01T13:15:55;5.37;;;4.13;;
6426;SDS011;3246;42.664;23.308;2023-03-01T13:18:32;3.20;;;2.80;;
6426;SDS011;3246;42.664;23.308;2023-03-01T13:20:59;4.63;;;3.40;;
6426;SDS011;3246;42.664;23.308;2023-03-01T13:23:27;6.97;;;3.77;;
6426;SDS011;3246;42.664;23.308;2023-03-01T13:28:49;3.77;;;3.47;;
6426;SDS011;3246;42.664;23.308;2023-03-01T13:34:01;3.70;;;3.13;;
6426;SDS011;3246;42.664;23.308;2023-03-01T13:36:47;3.93;;;3.33;;
6426;SDS011;3246;42.664;23.308;2023-03-01T13:41:57;2.67;;;2.53;;
6426;SDS011;3246;42.664;23.308;2023-03-01T13:44:28;3.57;;;2.90;;
6426;SDS011;3246;42.664;23.308;2023-03-01T13:46:56;2.53;;;2.33;;
6426;SDS011;3246;42.664;23.308;2023-03-01T13:49:26;5.80;;;2.40;;
6426;SDS011;3246;42.664;23.308;2023-03-01T13:51:53;3.13;;;2.83;;
6426;SDS011;3246;42.664;23.308;2023-03-01T13:54:22;5.10;;;3.10;;
6426;SDS011;3246;42.664;23.308;2023-03-01T13:56:51;4.57;;;2.30;;
6426;SDS011;3246;42.664;23.308;2023-03-01T13:59:18;4.37;;;2.23;;
6426;SDS011;3246;42.664;23.308;2023-03-01T14:01:51;2.90;;;2.10;;
6426;SDS011;3246;42.664;23.308;2023-03-01T14:04:19;3.07;;;2.73;;
6426;SDS011;3246;42.664;23.308;2023-03-01T14:06:46;7.73;;;3.33;;
6426;SDS011;3246;42.664;23.308;2023-03-01T14:09:14;5.00;;;3.07;;
6426;SDS011;3246;42.664;23.308;2023-03-01T14:11:57;2.87;;;2.47;;
6426;SDS011;3246;42.664;23.308;2023-03-01T14:14:45;3.13;;;2.93;;
6426;SDS011;3246;42.664;23.308;2023-03-01T14:17:18;2.90;;;2.40;;
6426;SDS011;3246;42.664;23.308;2023-03-01T14:19:56;3.23;;;2.93;;
6426;SDS011;3246;42.664;23.308;2023-03-01T14:22:24;2.70;;;2.50;;
6426;SDS011;3246;42.664;23.308;2023-03-01T14:24:53;3.40;;;3.10;;
6426;SDS011;3246;42.664;23.308;2023-03-01T14:27:20;3.40;;;3.10;;
6426;SDS011;3246;42.664;23.308;2023-03-01T14:29:53;6.10;;;2.93;;
6426;SDS011;3246;42.664;23.308;2023-03-01T14:32:24;3.53;;;3.07;;
6426;SDS011;3246;42.664;23.308;2023-03-01T14:34:50;4.43;;;2.70;;
6426;SDS011;3246;42.664;23.308;2023-03-01T14:37:21;3.47;;;2.53;;
6426;SDS011;3246;42.664;23.308;2023-03-01T14:39:48;3.03;;;2.83;;
6426;SDS011;3246;42.664;23.308;2023-03-01T14:42:14;4.90;;;2.70;;
6426;SDS011;3246;42.664;23.308;2023-03-01T14:44:42;3.57;;;2.60;;
6426;SDS011;3246;42.664;23.308;2023-03-01T14:47:10;4.03;;;2.60;;
6426;SDS011;3246;42.664;23.308;2023-03-01T14:49:39;4.13;;;2.47;;
6426;SDS011;3246;42.664;23.308;2023-03-01T14:52:07;3.53;;;2.50;;
6426;SDS011;3246;42.664;23.308;2023-03-01T14:54:35;2.60;;;2.40;;
6426;SDS011;3246;42.664;23.308;2023-03-01T14:57:05;3.20;;;2.90;;
6426;SDS011;3246;42.664;23.308;2023-03-01T14:59:32;4.93;;;2.97;;
6426;SDS011;3246;42.664;23.308;2023-03-01T15:01:59;2.90;;;2.60;;
6426;SDS011;3246;42.664;23.308;2023-03-01T15:04:26;3.00;;;2.70;;
6426;SDS011;3246;42.664;23.308;2023-03-01T15:06:55;2.97;;;2.30;;
6426;SDS011;3246;42.664;23.308;2023-03-01T15:09:30;3.27;;;2.33;;
6426;SDS011;3246;42.664;23.308;2023-03-01T15:11:58;3.07;;;2.53;;
6426;SDS011;3246;42.664;23.308;2023-03-01T15:14:25;3.43;;;2.73;;
6426;SDS011;3246;42.664;23.308;2023-03-01T15:16:52;2.17;;;1.97;;
6426;SDS011;3246;42.664;23.308;2023-03-01T15:19:18;3.47;;;2.77;;
6426;SDS011;3246;42.664;23.308;2023-03-01T15:21:46;4.70;;;2.83;;
6426;SDS011;3246;42.664;23.308;2023-03-01T15:24:17;7.37;;;2.47;;
6426;SDS011;3246;42.664;23.308;2023-03-01T15:26:46;2.63;;;2.40;;